Time;durP1;ratioP1;P1;durP2;ratioP2;P2;SDS_P1;SDS_P2;PMS_P1;PMS_P2;Temp;Humidity;BMP_temperature;BMP_pressure;BME280_temperature;BME280_humidity;BME280_pressure;Samples;Min_cycle;Max_cycle;Signal;HPM_P1;HPM_P2
2023/12/28 00:00:08;;;;;;;4.65;2.65;;;;;;;;;;5025274;28;20095;-86
2023/12/28 00:02:37;;;;;;;4.80;2.90;;;;;;;;;;5025559;28;20118;-85
2023/12/28 00:05:06;;;;;;;4.70;2.95;;;;;;;;;;5025696;28;20050;-85
2023/12/28 00:07:35;;;;;;;3.97;2.80;;;;;;;;;;5018287;28;20060;-85
2023/12/28 00:10:06;;;;;;;2.92;2.60;;;;;;;;;;5025137;28;20054;-86
2023/12/28 00:12:34;;;;;;;4.45;2.80;;;;;;;;;;5025329;28;20103;-85
2023/12/28 00:15:02;;;;;;;3.75;2.25;;;;;;;;;;5025290;28;20454;-86
2023/12/28 00:17:31;;;;;;;4.68;2.70;;;;;;;;;;5024056;28;20045;-85
2023/12/28 00:19:59;;;;;;;5.15;2.92;;;;;;;;;;5025196;28;20045;-85
2023/12/28 00:22:28;;;;;;;6.22;2.95;;;;;;;;;;5022700;28;20051;-86
2023/12/28 00:24:56;;;;;;;4.63;2.60;;;;;;;;;;5018136;28;20678;-86
2023/12/28 00:27:26;;;;;;;5.97;2.90;;;;;;;;;;5022876;28;20388;-85
2023/12/28 00:29:54;;;;;;;5.57;3.00;;;;;;;;;;5025636;28;20049;-86
2023/12/28 00:32:23;;;;;;;5.93;2.50;;;;;;;;;;5017913;28;20050;-85
2023/12/28 00:34:51;;;;;;;3.85;2.55;;;;;;;;;;5021721;28;20045;-86
2023/12/28 00:37:19;;;;;;;5.07;3.00;;;;;;;;;;5020301;28;20080;-86
2023/12/28 00:39:49;;;;;;;4.05;2.78;;;;;;;;;;5023062;28;20041;-86
2023/12/28 00:42:19;;;;;;;5.68;3.00;;;;;;;;;;5024594;28;20144;-85
2023/12/28 00:44:49;;;;;;;4.63;2.60;;;;;;;;;;5024003;28;20057;-86
2023/12/28 00:47:17;;;;;;;3.53;2.45;;;;;;;;;;5021795;28;20498;-86
2023/12/28 00:49:45;;;;;;;4.60;2.55;;;;;;;;;;5016599;28;20487;-86
2023/12/28 00:52:14;;;;;;;3.80;2.80;;;;;;;;;;5022013;28;20136;-85
2023/12/28 00:54:42;;;;;;;5.50;2.58;;;;;;;;;;5021644;28;20047;-86
2023/12/28 00:57:11;;;;;;;5.00;2.97;;;;;;;;;;5021207;28;20049;-86
2023/12/28 00:59:39;;;;;;;5.43;3.30;;;;;;;;;;5024244;28;20077;-85
2023/12/28 01:02:09;;;;;;;5.70;3.53;;;;;;;;;;5021909;28;20134;-85
2023/12/28 01:04:37;;;;;;;8.77;3.17;;;;;;;;;;5025333;28;20085;-86
2023/12/28 01:07:06;;;;;;;3.88;2.40;;;;;;;;;;5022873;28;20514;-85
2023/12/28 01:09:34;;;;;;;5.25;3.13;;;;;;;;;;5021517;28;20042;-86
2023/12/28 01:12:03;;;;;;;5.47;2.97;;;;;;;;;;5020646;28;20042;-86
2023/12/28 01:14:31;;;;;;;3.63;2.42;;;;;;;;;;5017119;28;20107;-86
2023/12/28 01:17:00;;;;;;;3.60;2.30;;;;;;;;;;5020541;28;20053;-85
2023/12/28 01:19:29;;;;;;;4.80;3.10;;;;;;;;;;5023719;28;20061;-85
2023/12/28 01:21:58;;;;;;;5.22;2.90;;;;;;;;;;5021070;28;21210;-86
2023/12/28 01:24:26;;;;;;;5.10;2.78;;;;;;;;;;5016814;28;20054;-85
2023/12/28 01:26:55;;;;;;;4.50;3.17;;;;;;;;;;5016829;28;20065;-86
2023/12/28 01:29:23;;;;;;;3.83;2.17;;;;;;;;;;5017204;28;20779;-86
2023/12/28 01:31:52;;;;;;;4.63;2.85;;;;;;;;;;5019906;28;20127;-85
2023/12/28 01:34:20;;;;;;;3.28;2.60;;;;;;;;;;5016881;28;20041;-86
2023/12/28 01:36:50;;;;;;;4.00;2.63;;;;;;;;;;5016618;28;20514;-85
2023/12/28 01:39:18;;;;;;;5.93;2.33;;;;;;;;;;5022767;28;20046;-86
2023/12/28 01:41:47;;;;;;;4.57;2.20;;;;;;;;;;5023885;28;20045;-86
2023/12/28 01:44:15;;;;;;;4.90;2.70;;;;;;;;;;5019717;28;20107;-86
2023/12/28 01:46:44;;;;;;;2.50;2.10;;;;;;;;;;5019257;28;20089;-85
2023/12/28 01:49:12;;;;;;;4.63;2.60;;;;;;;;;;5020615;28;20583;-86
2023/12/28 01:51:41;;;;;;;5.55;2.38;;;;;;;;;;5023005;28;20088;-86
2023/12/28 01:54:11;;;;;;;3.83;2.17;;;;;;;;;;5017626;28;20407;-85
2023/12/28 01:56:40;;;;;;;2.88;2.28;;;;;;;;;;5022273;28;20046;-85
2023/12/28 01:59:08;;;;;;;6.13;2.40;;;;;;;;;;5020089;28;20050;-85
2023/12/28 02:01:36;;;;;;;4.03;2.13;;;;;;;;;;5022487;28;20445;-86
2023/12/28 02:04:06;;;;;;;5.22;2.00;;;;;;;;;;5015762;28;20116;-85
2023/12/28 02:06:35;;;;;;;2.55;2.10;;;;;;;;;;5016127;28;20496;-85
2023/12/28 02:09:03;;;;;;;3.47;2.20;;;;;;;;;;5016878;28;20711;-85
2023/12/28 02:11:33;;;;;;;2.97;2.10;;;;;;;;;;5017531;28;20505;-86
2023/12/28 02:14:01;;;;;;;2.92;2.10;;;;;;;;;;5016056;28;20092;-85
2023/12/28 02:16:31;;;;;;;8.63;1.92;;;;;;;;;;5016667;28;20049;-85
2023/12/28 02:19:02;;;;;;;1.98;1.65;;;;;;;;;;5017228;28;20092;-85
2023/12/28 02:21:33;;;;;;;2.25;1.63;;;;;;;;;;5016528;28;20042;-86
2023/12/28 02:24:01;;;;;;;2.47;1.52;;;;;;;;;;5016222;28;20050;-85
2023/12/28 02:26:31;;;;;;;2.30;1.67;;;;;;;;;;5014755;28;20046;-86
2023/12/28 02:28:59;;;;;;;3.78;1.60;;;;;;;;;;5021961;28;20493;-85
2023/12/28 02:31:29;;;;;;;4.20;2.20;;;;;;;;;;5021941;28;20045;-85
2023/12/28 02:34:00;;;;;;;3.30;1.98;;;;;;;;;;5017457;28;20045;-85
2023/12/28 02:36:29;;;;;;;3.72;1.90;;;;;;;;;;5018993;28;20128;-85
2023/12/28 02:39:01;;;;;;;3.72;2.08;;;;;;;;;;5015392;28;20046;-86
2023/12/28 02:41:32;;;;;;;1.70;1.45;;;;;;;;;;5015456;28;20049;-85
2023/12/28 02:44:01;;;;;;;1.70;1.60;;;;;;;;;;5016117;28;20054;-85
2023/12/28 02:46:29;;;;;;;5.00;2.00;;;;;;;;;;5017574;28;20041;-86
2023/12/28 02:48:59;;;;;;;1.80;1.60;;;;;;;;;;5015656;28;20426;-86
2023/12/28 02:51:27;;;;;;;2.53;1.70;;;;;;;;;;5016874;28;20104;-86
2023/12/28 02:53:56;;;;;;;2.75;1.70;;;;;;;;;;5017938;28;20060;-86
2023/12/28 02:56:24;;;;;;;2.63;1.38;;;;;;;;;;5020326;28;20053;-86
2023/12/28 02:58:54;;;;;;;4.28;1.80;;;;;;;;;;5015453;28;20049;-86
2023/12/28 03:01:22;;;;;;;2.92;1.63;;;;;;;;;;5015176;28;20082;-86
2023/12/28 03:03:51;;;;;;;3.00;1.83;;;;;;;;;;5018069;28;20054;-86
2023/12/28 03:06:20;;;;;;;3.03;1.67;;;;;;;;;;5020203;28;20589;-86
2023/12/28 03:08:48;;;;;;;2.88;1.75;;;;;;;;;;5017781;28;20481;-86
2023/12/28 03:11:16;;;;;;;2.03;1.50;;;;;;;;;;5015961;28;20049;-85
2023/12/28 03:13:45;;;;;;;3.03;1.45;;;;;;;;;;5015795;28;20057;-86
2023/12/28 03:16:16;;;;;;;1.92;1.45;;;;;;;;;;5015491;28;20075;-86
2023/12/28 03:18:44;;;;;;;1.95;1.30;;;;;;;;;;5021584;28;20049;-85
2023/12/28 03:21:13;;;;;;;1.30;1.20;;;;;;;;;;5017878;28;20073;-85
2023/12/28 03:23:41;;;;;;;2.03;1.75;;;;;;;;;;5020981;28;20058;-85
2023/12/28 03:26:10;;;;;;;1.75;1.27;;;;;;;;;;5018692;28;20054;-85
2023/12/28 03:28:38;;;;;;;5.60;1.60;;;;;;;;;;5018980;28;20054;-86
2023/12/28 03:31:07;;;;;;;3.08;1.45;;;;;;;;;;5016186;28;20060;-86
2023/12/28 03:33:37;;;;;;;1.45;1.20;;;;;;;;;;5021620;28;20540;-86
2023/12/28 03:36:05;;;;;;;3.40;1.42;;;;;;;;;;5014797;28;20049;-86
2023/12/28 03:38:34;;;;;;;1.73;1.48;;;;;;;;;;5017194;28;20408;-86
2023/12/28 03:41:02;;;;;;;1.55;1.20;;;;;;;;;;5015143;28;20053;-85
2023/12/28 03:43:30;;;;;;;1.77;1.33;;;;;;;;;;5016296;28;20133;-86
2023/12/28 03:45:59;;;;;;;1.83;1.17;;;;;;;;;;5014942;28;20050;-85
2023/12/28 03:48:27;;;;;;;2.38;1.33;;;;;;;;;;5022125;28;20100;-85
2023/12/28 03:50:57;;;;;;;1.40;1.30;;;;;;;;;;5022271;28;20057;-86
2023/12/28 03:53:25;;;;;;;1.65;1.30;;;;;;;;;;5021451;28;20081;-86
2023/12/28 03:55:54;;;;;;;1.92;1.25;;;;;;;;;;5017700;28;20045;-85
2023/12/28 03:58:22;;;;;;;1.20;1.10;;;;;;;;;;5018042;28;20127;-85
2023/12/28 04:00:51;;;;;;;1.52;1.42;;;;;;;;;;5020865;28;20406;-86
2023/12/28 04:03:19;;;;;;;1.30;1.02;;;;;;;;;;5022571;28;20095;-85
2023/12/28 04:05:48;;;;;;;2.28;1.35;;;;;;;;;;5024021;28;20057;-86
2023/12/28 04:08:18;;;;;;;1.23;1.08;;;;;;;;;;5018119;28;20097;-85
2023/12/28 04:10:46;;;;;;;1.10;1.00;;;;;;;;;;5020674;28;20045;-85
2023/12/28 04:13:15;;;;;;;3.08;1.52;;;;;;;;;;5022595;28;20057;-86
2023/12/28 04:15:43;;;;;;;2.17;1.30;;;;;;;;;;5026020;28;20045;-86
2023/12/28 04:18:12;;;;;;;1.35;1.25;;;;;;;;;;5023936;28;20045;-86
2023/12/28 04:20:44;;;;;;;1.52;1.27;;;;;;;;;;5020169;28;20042;-85
2023/12/28 04:23:12;;;;;;;1.88;1.13;;;;;;;;;;5018175;28;20099;-86
2023/12/28 04:25:42;;;;;;;1.75;1.42;;;;;;;;;;5018596;28;20057;-86
2023/12/28 04:28:10;;;;;;;5.35;1.30;;;;;;;;;;5023125;28;20073;-86
2023/12/28 04:30:39;;;;;;;1.23;1.13;;;;;;;;;;5017433;28;20115;-86
2023/12/28 04:33:07;;;;;;;1.38;1.17;;;;;;;;;;5018906;28;20065;-86
2023/12/28 04:35:36;;;;;;;2.15;1.48;;;;;;;;;;5024863;28;20049;-86
2023/12/28 04:38:04;;;;;;;2.70;1.13;;;;;;;;;;5018771;28;20081;-86
2023/12/28 04:40:33;;;;;;;1.17;1.08;;;;;;;;;;5017703;28;20058;-86
2023/12/28 04:43:03;;;;;;;2.20;1.17;;;;;;;;;;5021721;28;20045;-86
2023/12/28 04:45:31;;;;;;;1.95;0.95;;;;;;;;;;5022297;28;20694;-86
2023/12/28 04:48:00;;;;;;;1.30;1.08;;;;;;;;;;5019237;28;20553;-86
2023/12/28 04:50:29;;;;;;;1.65;1.20;;;;;;;;;;5021546;28;20105;-86
2023/12/28 04:52:58;;;;;;;1.27;1.00;;;;;;;;;;5024367;28;20360;-86
2023/12/28 04:55:26;;;;;;;0.90;0.90;;;;;;;;;;5022755;28;20046;-86
2023/12/28 04:57:55;;;;;;;1.92;0.98;;;;;;;;;;5018211;28;20057;-86
2023/12/28 05:00:25;;;;;;;1.73;1.25;;;;;;;;;;5021558;28;20420;-86
2023/12/28 05:02:54;;;;;;;1.60;0.90;;;;;;;;;;5024378;28;20057;-86
2023/12/28 05:05:22;;;;;;;1.23;0.80;;;;;;;;;;5023904;28;20552;-86
2023/12/28 05:07:51;;;;;;;1.50;1.20;;;;;;;;;;5023084;28;20096;-86
2023/12/28 05:10:19;;;;;;;0.80;0.80;;;;;;;;;;5023456;28;20367;-86
2023/12/28 05:12:47;;;;;;;1.92;0.88;;;;;;;;;;5023274;28;20113;-86
2023/12/28 05:15:18;;;;;;;1.88;1.08;;;;;;;;;;5023923;28;20056;-86
2023/12/28 05:17:47;;;;;;;0.75;0.70;;;;;;;;;;5020584;28;20049;-86
2023/12/28 05:20:16;;;;;;;1.45;1.13;;;;;;;;;;5022828;28;20391;-86
2023/12/28 05:22:45;;;;;;;2.58;0.90;;;;;;;;;;5016478;28;20497;-86
2023/12/28 05:25:13;;;;;;;1.23;1.08;;;;;;;;;;5022940;28;20081;-86
2023/12/28 05:27:42;;;;;;;2.08;1.20;;;;;;;;;;5019426;28;20100;-86
2023/12/28 05:30:11;;;;;;;1.25;1.02;;;;;;;;;;5024506;28;20493;-86
2023/12/28 05:32:40;;;;;;;2.50;1.25;;;;;;;;;;5023304;28;20073;-86
2023/12/28 05:35:10;;;;;;;1.13;0.93;;;;;;;;;;5023454;28;20100;-86
2023/12/28 05:37:39;;;;;;;2.05;1.20;;;;;;;;;;5022263;28;20058;-86
2023/12/28 05:40:09;;;;;;;1.15;1.08;;;;;;;;;;5023696;28;20053;-85
2023/12/28 05:42:38;;;;;;;0.80;0.80;;;;;;;;;;5025028;28;20046;-86
2023/12/28 05:45:06;;;;;;;1.10;1.00;;;;;;;;;;5016729;28;20056;-86
2023/12/28 05:47:35;;;;;;;0.90;0.85;;;;;;;;;;5019912;28;20586;-86
2023/12/28 05:50:05;;;;;;;2.17;0.90;;;;;;;;;;5016575;28;20045;-85
2023/12/28 05:52:35;;;;;;;1.20;1.10;;;;;;;;;;5019234;28;20050;-86
2023/12/28 05:55:04;;;;;;;1.00;0.90;;;;;;;;;;5019743;28;20056;-86
2023/12/28 05:57:32;;;;;;;2.45;1.20;;;;;;;;;;5019538;28;20133;-86
2023/12/28 06:00:01;;;;;;;1.75;1.13;;;;;;;;;;5023258;28;20050;-86
2023/12/28 06:02:29;;;;;;;1.67;0.98;;;;;;;;;;5018482;28;20061;-86
2023/12/28 06:04:58;;;;;;;1.15;0.90;;;;;;;;;;5018542;28;20450;-86
2023/12/28 06:07:26;;;;;;;1.13;0.98;;;;;;;;;;5017500;28;20409;-86
2023/12/28 06:09:56;;;;;;;0.90;0.90;;;;;;;;;;5018409;28;20054;-85
2023/12/28 06:12:24;;;;;;;1.00;0.80;;;;;;;;;;5022226;28;20079;-86
2023/12/28 06:14:53;;;;;;;0.77;0.73;;;;;;;;;;5023561;28;20076;-86
2023/12/28 06:17:21;;;;;;;1.00;0.90;;;;;;;;;;5017821;28;20103;-85
2023/12/28 06:19:50;;;;;;;1.33;1.00;;;;;;;;;;5016105;28;20495;-86
2023/12/28 06:22:18;;;;;;;1.60;1.00;;;;;;;;;;5022192;28;20042;-86
2023/12/28 06:24:47;;;;;;;1.38;0.93;;;;;;;;;;5022700;28;20490;-85
2023/12/28 06:27:16;;;;;;;1.42;1.20;;;;;;;;;;5023551;28;20319;-86
2023/12/28 06:29:45;;;;;;;1.05;0.93;;;;;;;;;;5023054;28;20552;-86
2023/12/28 06:32:13;;;;;;;1.52;1.13;;;;;;;;;;5017162;28;20061;-86
2023/12/28 06:34:41;;;;;;;0.82;0.82;;;;;;;;;;5022764;28;20050;-86
2023/12/28 06:37:10;;;;;;;1.40;1.00;;;;;;;;;;5020949;28;20146;-86
2023/12/28 06:39:39;;;;;;;1.55;1.15;;;;;;;;;;5016033;28;20049;-86
2023/12/28 06:42:07;;;;;;;2.58;1.00;;;;;;;;;;5016461;28;20053;-86
2023/12/28 06:44:37;;;;;;;3.05;1.00;;;;;;;;;;5017783;28;20077;-86
2023/12/28 06:47:05;;;;;;;1.70;0.95;;;;;;;;;;5018776;28;20131;-86
2023/12/28 06:49:34;;;;;;;0.77;0.77;;;;;;;;;;5020434;28;20587;-86
2023/12/28 06:52:02;;;;;;;1.17;1.08;;;;;;;;;;5016012;28;20050;-86
2023/12/28 06:54:31;;;;;;;1.13;1.00;;;;;;;;;;5020046;28;20652;-86
2023/12/28 06:56:59;;;;;;;1.00;0.90;;;;;;;;;;5021221;28;20073;-85
2023/12/28 06:59:28;;;;;;;2.13;1.08;;;;;;;;;;5015388;28;20096;-86
2023/12/28 07:01:57;;;;;;;1.13;1.02;;;;;;;;;;5016356;28;20478;-86
2023/12/28 07:04:29;;;;;;;7.30;1.20;;;;;;;;;;5015440;28;20685;-86
2023/12/28 07:06:57;;;;;;;1.02;0.90;;;;;;;;;;5017496;28;20134;-86
2023/12/28 07:09:26;;;;;;;1.75;1.30;;;;;;;;;;5015799;28;20050;-86
2023/12/28 07:11:54;;;;;;;1.05;1.00;;;;;;;;;;5022877;28;20049;-85
2023/12/28 07:14:23;;;;;;;1.08;0.70;;;;;;;;;;5022414;28;20124;-86
2023/12/28 07:16:51;;;;;;;2.13;1.20;;;;;;;;;;5019950;28;20058;-86
2023/12/28 07:19:21;;;;;;;2.88;0.90;;;;;;;;;;5017651;28;20553;-86
2023/12/28 07:21:49;;;;;;;1.13;0.77;;;;;;;;;;5015720;28;20045;-86
2023/12/28 07:24:18;;;;;;;2.80;0.80;;;;;;;;;;5017970;28;20466;-86
2023/12/28 07:26:46;;;;;;;1.10;0.95;;;;;;;;;;5019821;28;20157;-86
2023/12/28 07:29:15;;;;;;;1.30;1.00;;;;;;;;;;5016846;28;20045;-86
2023/12/28 07:31:43;;;;;;;0.93;0.90;;;;;;;;;;5019443;28;20080;-86
2023/12/28 07:34:11;;;;;;;0.77;0.77;;;;;;;;;;5019879;28;20057;-85
2023/12/28 07:36:43;;;;;;;1.55;1.15;;;;;;;;;;5022911;28;20049;-86
2023/12/28 07:39:12;;;;;;;1.85;0.90;;;;;;;;;;5025088;28;20088;-86
2023/12/28 07:41:41;;;;;;;0.98;0.90;;;;;;;;;;5020684;28;20049;-85
2023/12/28 07:44:09;;;;;;;1.00;0.90;;;;;;;;;;5024198;28;20041;-86
2023/12/28 07:46:38;;;;;;;1.42;0.85;;;;;;;;;;5018656;28;20499;-86
2023/12/28 07:49:06;;;;;;;1.85;1.00;;;;;;;;;;5025785;28;20103;-86
2023/12/28 07:51:35;;;;;;;0.85;0.85;;;;;;;;;;5025598;28;20084;-86
2023/12/28 07:54:05;;;;;;;0.90;0.80;;;;;;;;;;5019315;28;20038;-86
2023/12/28 07:56:33;;;;;;;1.23;1.00;;;;;;;;;;5020419;28;20693;-86
2023/12/28 07:59:03;;;;;;;1.58;1.08;;;;;;;;;;5020843;28;20542;-86
2023/12/28 08:01:33;;;;;;;1.25;1.00;;;;;;;;;;5018598;28;20234;-86
2023/12/28 08:04:01;;;;;;;1.42;0.93;;;;;;;;;;5023235;28;20056;-86
2023/12/28 08:06:32;;;;;;;1.85;1.10;;;;;;;;;;5019877;28;20045;-86
2023/12/28 08:09:00;;;;;;;3.08;1.17;;;;;;;;;;5020897;28;20049;-86
2023/12/28 08:11:30;;;;;;;1.70;1.08;;;;;;;;;;5018196;28;20054;-86
2023/12/28 08:13:59;;;;;;;1.40;0.98;;;;;;;;;;5020228;28;20096;-86
2023/12/28 08:16:27;;;;;;;2.03;1.17;;;;;;;;;;5018849;28;20053;-86
2023/12/28 08:18:55;;;;;;;1.63;1.10;;;;;;;;;;5025241;28;20057;-86
2023/12/28 08:21:24;;;;;;;1.63;1.15;;;;;;;;;;5024953;28;20038;-86
2023/12/28 08:23:53;;;;;;;1.08;0.80;;;;;;;;;;5018696;28;20055;-86
2023/12/28 08:26:21;;;;;;;2.13;0.95;;;;;;;;;;5020217;28;20054;-86
2023/12/28 08:28:51;;;;;;;2.20;1.10;;;;;;;;;;5021930;28;20411;-86
2023/12/28 08:31:19;;;;;;;1.10;0.98;;;;;;;;;;5022587;28;20498;-86
2023/12/28 08:33:48;;;;;;;1.05;0.82;;;;;;;;;;5020470;28;20498;-86
2023/12/28 08:36:17;;;;;;;0.88;0.75;;;;;;;;;;5024139;28;20058;-86
2023/12/28 08:38:46;;;;;;;1.80;1.10;;;;;;;;;;5019901;28;20470;-86
2023/12/28 08:41:20;;;;;;;2.20;1.00;;;;;;;;;;5024707;28;20041;-86
2023/12/28 08:43:49;;;;;;;1.63;1.20;;;;;;;;;;5020303;28;20465;-86
2023/12/28 08:46:19;;;;;;;2.10;1.33;;;;;;;;;;5017538;28;20151;-86
2023/12/28 08:48:47;;;;;;;2.85;1.10;;;;;;;;;;5023184;28;20057;-86
2023/12/28 08:51:16;;;;;;;0.93;0.75;;;;;;;;;;5018435;28;20045;-86
2023/12/28 08:53:44;;;;;;;3.58;1.00;;;;;;;;;;5018355;28;20046;-86
2023/12/28 08:56:18;;;;;;;0.80;0.80;;;;;;;;;;5023166;28;20058;-86
2023/12/28 08:58:47;;;;;;;1.02;0.70;;;;;;;;;;5018958;28;20054;-86
2023/12/28 09:01:21;;;;;;;3.03;0.90;;;;;;;;;;5020106;28;20068;-86
2023/12/28 09:03:50;;;;;;;4.22;1.05;;;;;;;;;;5022066;28;20057;-86
2023/12/28 09:06:19;;;;;;;1.02;0.85;;;;;;;;;;5018782;28;20073;-86
2023/12/28 09:08:50;;;;;;;1.13;0.82;;;;;;;;;;5018619;28;20046;-86
2023/12/28 09:11:18;;;;;;;1.40;0.80;;;;;;;;;;5018178;28;20446;-86
2023/12/28 09:13:47;;;;;;;1.42;0.82;;;;;;;;;;5017967;28;20133;-86
2023/12/28 09:16:16;;;;;;;3.25;1.00;;;;;;;;;;5017276;28;20100;-86
2023/12/28 09:18:46;;;;;;;1.65;0.88;;;;;;;;;;5022011;28;20038;-86
2023/12/28 09:21:15;;;;;;;1.90;0.90;;;;;;;;;;5023303;28;20050;-86
2023/12/28 09:23:44;;;;;;;1.52;0.95;;;;;;;;;;5022529;28;20050;-86
2023/12/28 09:26:12;;;;;;;2.13;1.38;;;;;;;;;;5017186;28;20143;-86
2023/12/28 09:28:41;;;;;;;2.47;1.00;;;;;;;;;;5021002;28;20084;-86
2023/12/28 09:31:09;;;;;;;2.47;1.10;;;;;;;;;;5017604;28;20046;-87
2023/12/28 09:33:38;;;;;;;1.48;0.88;;;;;;;;;;5024382;28;20046;-86
2023/12/28 09:36:08;;;;;;;1.10;0.90;;;;;;;;;;5021970;28;20049;-86
2023/12/28 09:38:37;;;;;;;5.90;1.50;;;;;;;;;;5018399;28;20050;-86
2023/12/28 09:41:09;;;;;;;1.05;0.90;;;;;;;;;;5024079;28;20053;-86
2023/12/28 09:43:39;;;;;;;1.60;0.95;;;;;;;;;;5023415;28;20049;-86
2023/12/28 09:46:09;;;;;;;3.00;1.00;;;;;;;;;;5017305;28;20105;-86
2023/12/28 09:48:39;;;;;;;2.20;1.13;;;;;;;;;;5018067;28;20514;-86
2023/12/28 09:51:11;;;;;;;5.40;1.52;;;;;;;;;;5019998;28;20433;-86
2023/12/28 09:53:44;;;;;;;1.45;1.08;;;;;;;;;;5015535;28;20412;-86
2023/12/28 09:56:14;;;;;;;6.25;1.67;;;;;;;;;;5021270;28;20045;-86
2023/12/28 09:58:44;;;;;;;4.15;1.70;;;;;;;;;;5018953;28;20053;-86
2023/12/28 10:01:14;;;;;;;6.70;2.08;;;;;;;;;;5024171;28;20104;-86
2023/12/28 10:03:43;;;;;;;2.90;1.70;;;;;;;;;;5016868;28;20131;-86
2023/12/28 10:06:15;;;;;;;2.22;1.60;;;;;;;;;;5017450;28;20376;-86
2023/12/28 10:08:47;;;;;;;3.28;1.27;;;;;;;;;;5018186;28;20057;-86
2023/12/28 10:11:16;;;;;;;1.48;0.98;;;;;;;;;;5023293;28;20099;-86
2023/12/28 10:13:45;;;;;;;2.20;1.17;;;;;;;;;;5020428;28;20049;-86
2023/12/28 10:16:13;;;;;;;0.75;0.73;;;;;;;;;;5022231;28;20060;-86
2023/12/28 10:18:43;;;;;;;1.80;0.75;;;;;;;;;;5016821;28;20410;-86
2023/12/28 10:21:13;;;;;;;1.77;0.93;;;;;;;;;;5015704;28;20057;-86
2023/12/28 10:23:42;;;;;;;1.45;1.00;;;;;;;;;;5015937;28;20077;-86
2023/12/28 10:26:11;;;;;;;1.60;0.82;;;;;;;;;;5017184;28;20062;-86
2023/12/28 10:28:39;;;;;;;0.80;0.70;;;;;;;;;;5021437;28;20050;-86
2023/12/28 10:31:09;;;;;;;1.17;0.77;;;;;;;;;;5018071;28;20177;-86
2023/12/28 10:33:38;;;;;;;1.85;0.90;;;;;;;;;;5022515;28;20049;-86
2023/12/28 10:36:08;;;;;;;1.33;0.68;;;;;;;;;;5020316;28;20056;-86
2023/12/28 10:38:39;;;;;;;1.35;1.00;;;;;;;;;;5019941;28;20099;-87
2023/12/28 10:41:08;;;;;;;0.70;0.65;;;;;;;;;;5020131;28;20050;-86
2023/12/28 10:43:40;;;;;;;0.90;0.73;;;;;;;;;;5023179;28;20061;-86
2023/12/28 10:46:09;;;;;;;0.70;0.70;;;;;;;;;;5021402;28;20111;-86
2023/12/28 10:48:40;;;;;;;0.60;0.60;;;;;;;;;;5020102;28;20046;-86
2023/12/28 10:51:11;;;;;;;1.25;0.90;;;;;;;;;;5016185;28;20045;-86
2023/12/28 10:53:47;;;;;;;2.00;0.90;;;;;;;;;;5015767;28;20103;-86
2023/12/28 10:56:22;;;;;;;3.42;1.00;;;;;;;;;;5013826;28;20050;-86
2023/12/28 10:58:51;;;;;;;2.15;0.80;;;;;;;;;;5019367;28;20506;-86
2023/12/28 11:01:24;;;;;;;1.35;0.90;;;;;;;;;;5016234;28;20064;-86
2023/12/28 11:04:00;;;;;;;1.73;1.00;;;;;;;;;;5018469;28;20062;-86
2023/12/28 11:06:28;;;;;;;0.65;0.65;;;;;;;;;;5021140;28;20045;-86
2023/12/28 11:08:59;;;;;;;1.77;0.73;;;;;;;;;;5021339;28;20049;-86
2023/12/28 11:11:28;;;;;;;0.85;0.70;;;;;;;;;;5023645;28;20478;-86
2023/12/28 11:13:57;;;;;;;0.95;0.80;;;;;;;;;;5020021;28;20491;-86
2023/12/28 11:16:25;;;;;;;1.40;0.90;;;;;;;;;;5020262;28;20041;-87
2023/12/28 11:18:54;;;;;;;0.90;0.80;;;;;;;;;;5022744;28;20096;-86
2023/12/28 11:21:23;;;;;;;1.13;0.70;;;;;;;;;;5019797;28;20053;-86
2023/12/28 11:23:52;;;;;;;1.00;0.55;;;;;;;;;;5021759;28;20118;-86
2023/12/28 11:26:23;;;;;;;0.90;0.70;;;;;;;;;;5020324;28;20053;-87
2023/12/28 11:28:51;;;;;;;1.05;0.65;;;;;;;;;;5020706;28;20050;-86
2023/12/28 11:31:20;;;;;;;0.90;0.77;;;;;;;;;;5018617;28;20112;-86
2023/12/28 11:33:49;;;;;;;1.33;0.80;;;;;;;;;;5019882;28;20108;-86
2023/12/28 11:36:24;;;;;;;1.70;0.70;;;;;;;;;;5025613;28;20105;-86
2023/12/28 11:38:55;;;;;;;1.50;0.98;;;;;;;;;;5025866;28;20073;-86
2023/12/28 11:41:26;;;;;;;1.35;0.70;;;;;;;;;;5020625;28;20109;-86
2023/12/28 11:43:55;;;;;;;1.20;0.95;;;;;;;;;;5021387;28;20085;-87
2023/12/28 11:46:25;;;;;;;0.90;0.73;;;;;;;;;;5018224;28;20084;-86
2023/12/28 11:48:53;;;;;;;1.08;0.80;;;;;;;;;;5019851;28;20392;-86
2023/12/28 11:51:22;;;;;;;1.30;0.80;;;;;;;;;;5024949;28;20096;-86
2023/12/28 11:53:50;;;;;;;1.35;1.00;;;;;;;;;;5019206;28;20050;-86
2023/12/28 11:56:18;;;;;;;1.38;0.73;;;;;;;;;;5025137;28;20127;-86
2023/12/28 11:58:49;;;;;;;1.00;0.80;;;;;;;;;;5023137;28;20050;-86
2023/12/28 12:01:17;;;;;;;1.33;0.90;;;;;;;;;;5021551;28;20057;-86
2023/12/28 12:03:46;;;;;;;2.20;0.85;;;;;;;;;;5018925;28;20053;-86
2023/12/28 12:06:14;;;;;;;2.00;1.05;;;;;;;;;;5022152;28;20431;-86
2023/12/28 12:08:46;;;;;;;2.25;0.95;;;;;;;;;;5020188;28;20076;-86
2023/12/28 12:11:15;;;;;;;1.40;1.00;;;;;;;;;;5024672;28;20064;-86
2023/12/28 12:13:43;;;;;;;0.75;0.60;;;;;;;;;;5020246;28;20057;-86
2023/12/28 12:16:15;;;;;;;1.10;0.70;;;;;;;;;;5017350;28;20077;-86
2023/12/28 12:18:44;;;;;;;1.27;0.80;;;;;;;;;;5020832;28;20392;-86
2023/12/28 12:21:14;;;;;;;2.55;1.10;;;;;;;;;;5018733;28;20132;-86
2023/12/28 12:23:42;;;;;;;2.50;1.00;;;;;;;;;;5019868;28;20942;-86
2023/12/28 12:26:10;;;;;;;1.25;0.90;;;;;;;;;;5019336;28;20108;-86
2023/12/28 12:28:39;;;;;;;1.13;0.88;;;;;;;;;;5020364;28;20552;-87
2023/12/28 12:31:10;;;;;;;5.53;2.00;;;;;;;;;;5018957;28;20111;-86
2023/12/28 12:33:41;;;;;;;1.05;0.65;;;;;;;;;;5022744;28;20508;-86
2023/12/28 12:36:10;;;;;;;1.20;0.60;;;;;;;;;;5024037;28;20045;-86
2023/12/28 12:38:39;;;;;;;0.85;0.60;;;;;;;;;;5021248;28;20049;-86
2023/12/28 12:41:08;;;;;;;0.98;0.80;;;;;;;;;;5023582;28;20077;-86
2023/12/28 12:43:36;;;;;;;2.35;0.90;;;;;;;;;;5017517;28;20050;-86
2023/12/28 12:46:05;;;;;;;1.35;0.73;;;;;;;;;;5018905;28;20103;-86
2023/12/28 12:48:35;;;;;;;1.58;0.80;;;;;;;;;;5019067;28;20050;-86
2023/12/28 12:51:06;;;;;;;0.82;0.65;;;;;;;;;;5017804;28;20042;-86
2023/12/28 12:53:35;;;;;;;1.50;0.77;;;;;;;;;;5017670;28;20054;-86
2023/12/28 12:56:04;;;;;;;1.00;0.77;;;;;;;;;;5016906;28;20065;-86
2023/12/28 12:58:33;;;;;;;0.98;0.70;;;;;;;;;;5019876;28;20044;-86
2023/12/28 13:01:05;;;;;;;1.10;0.73;;;;;;;;;;5017113;28;20042;-85
2023/12/28 13:03:33;;;;;;;0.88;0.80;;;;;;;;;;5019333;28;20054;-86
2023/12/28 13:06:03;;;;;;;1.40;0.82;;;;;;;;;;5018780;28;20128;-86
2023/12/28 13:08:34;;;;;;;1.80;0.82;;;;;;;;;;5022078;28;20140;-86
2023/12/28 13:11:02;;;;;;;1.45;0.50;;;;;;;;;;5024102;28;20049;-86
2023/12/28 13:13:31;;;;;;;0.82;0.70;;;;;;;;;;5024346;28;20046;-87
2023/12/28 13:15:59;;;;;;;0.95;0.80;;;;;;;;;;5022057;28;20046;-86
2023/12/28 13:18:28;;;;;;;1.00;0.75;;;;;;;;;;5021677;28;20128;-86
2023/12/28 13:20:56;;;;;;;2.72;0.80;;;;;;;;;;5021522;28;20049;-86
2023/12/28 13:23:24;;;;;;;1.90;0.82;;;;;;;;;;5015544;28;20049;-86
2023/12/28 13:25:54;;;;;;;0.75;0.70;;;;;;;;;;5016801;28;20061;-86
2023/12/28 13:28:23;;;;;;;1.45;0.77;;;;;;;;;;5018231;28;20049;-86
2023/12/28 13:30:55;;;;;;;0.80;0.80;;;;;;;;;;5017931;28;20049;-86
2023/12/28 13:33:24;;;;;;;0.85;0.63;;;;;;;;;;5018320;28;20119;-86
2023/12/28 13:35:53;;;;;;;1.08;0.88;;;;;;;;;;5016701;28;20056;-86
2023/12/28 13:38:21;;;;;;;0.70;0.70;;;;;;;;;;5020101;28;20112;-86
2023/12/28 13:40:50;;;;;;;1.10;0.80;;;;;;;;;;5017163;28;20080;-86
2023/12/28 13:43:19;;;;;;;1.67;0.80;;;;;;;;;;5016941;28;20054;-86
2023/12/28 13:45:48;;;;;;;1.60;0.98;;;;;;;;;;5022112;28;20085;-86
2023/12/28 13:48:16;;;;;;;3.03;0.75;;;;;;;;;;5020572;28;20638;-86
2023/12/28 13:50:45;;;;;;;2.00;0.60;;;;;;;;;;5018412;28;20062;-85
2023/12/28 13:53:14;;;;;;;0.70;0.60;;;;;;;;;;5016520;28;20046;-86
2023/12/28 13:55:42;;;;;;;0.70;0.70;;;;;;;;;;5022287;28;20049;-86
2023/12/28 13:58:10;;;;;;;1.20;0.70;;;;;;;;;;5016885;28;20107;-86
2023/12/28 14:00:41;;;;;;;1.80;0.70;;;;;;;;;;5015728;28;20053;-86
2023/12/28 14:03:09;;;;;;;0.90;0.73;;;;;;;;;;5015768;28;20057;-86
2023/12/28 14:05:38;;;;;;;1.17;0.80;;;;;;;;;;5018239;28;20061;-86
2023/12/28 14:08:07;;;;;;;0.82;0.70;;;;;;;;;;5016674;28;20056;-86
2023/12/28 14:10:36;;;;;;;0.80;0.80;;;;;;;;;;5015543;28;20061;-87
2023/12/28 14:13:05;;;;;;;1.50;0.80;;;;;;;;;;5023141;28;20057;-86
2023/12/28 14:15:33;;;;;;;0.88;0.73;;;;;;;;;;5022681;28;20053;-86
2023/12/28 14:18:05;;;;;;;1.77;1.13;;;;;;;;;;5017902;28;20065;-85
2023/12/28 14:20:33;;;;;;;0.93;0.80;;;;;;;;;;5022455;28;20490;-86
2023/12/28 14:23:02;;;;;;;1.35;1.02;;;;;;;;;;5019140;28;20132;-86
2023/12/28 14:25:34;;;;;;;1.50;0.90;;;;;;;;;;5015615;28;20044;-86
2023/12/28 14:28:03;;;;;;;1.13;0.88;;;;;;;;;;5021777;28;20103;-86
2023/12/28 14:30:32;;;;;;;2.42;0.63;;;;;;;;;;5017560;28;20498;-86
2023/12/28 14:33:01;;;;;;;0.85;0.80;;;;;;;;;;5023396;28;20056;-85
2023/12/28 14:35:31;;;;;;;3.72;1.10;;;;;;;;;;5021758;28;20526;-86
2023/12/28 14:38:00;;;;;;;1.27;0.90;;;;;;;;;;5019041;28;20457;-85
2023/12/28 14:40:29;;;;;;;3.28;1.00;;;;;;;;;;5022949;28;20297;-86
2023/12/28 14:42:57;;;;;;;1.05;0.88;;;;;;;;;;5022270;28;20068;-86
2023/12/28 14:45:26;;;;;;;1.00;0.80;;;;;;;;;;5020589;28;20053;-86
2023/12/28 14:47:55;;;;;;;4.07;1.48;;;;;;;;;;5020105;28;20054;-86
2023/12/28 14:50:23;;;;;;;1.60;0.70;;;;;;;;;;5021391;28;20109;-86
2023/12/28 14:52:53;;;;;;;0.75;0.75;;;;;;;;;;5021716;28;20107;-86